Aeroporto :
LOGIN :

Iscrizione | Disclaimer

   EN    FR    IT 

 










Sommario :    VFR   VFR Marginale   IFR   IFR Intensivo   IFR Molto Intensivo
Visibilità : 
Base nubi : 
>= 8 km
>= 3000ft
5 / 8 km
1000 / 3000 ft
1500m / 5 km
500 / 1000 ft
800 / 1500m
200 / 500 ft
< 800m
< 200 ft
Simboli :   Temporali  Nebbia  Neve Forte  Precipitazioni Forti  Vento > 20 kt
SIGMETs :   Varie  Temporali  Ghiacco  Turbolenza  Onda orograficha  Ceneri Vulcaniche






- Altitudine del aeroporto : 195 ft


LFMY - Salon de Provence

ULTIMO METAR :
  • 250530Z AUTO 05003KT 9999 BKN041 OVC066 09/08 Q1021

METARs OBSOLETI :
  • 250500Z AUTO 08003KT 9999 BKN037/// OVC045/// ///TCU 09/08 Q1021
  • 250430Z AUTO 08004KT 9999 BKN028/// OVC033/// ///TCU 09/08 Q1021
  • 250400Z AUTO 03002KT 9999 FEW025/// OVC032/// ///TCU 09/08 Q1021
  • 250330Z AUTO 05003KT 9999 OVC033 09/08 Q1021
  • 250300Z AUTO 04003KT 9999 OVC036 09/08 Q1022

TAF TAF LFMY
Valido dal 24 a 09 ore il 25 a 09 ore UTC


240800Z 2409/2509 10006KT 9999 BKN040
TEMPO 2409/2416 4000 -SHRA BKN020TCU
PROB30
TEMPO 2412/2416 2000 TSRA SCT010 BKN015CB



MetMap, La meteo Aeronautica in un colpo d'occhio ! - Copyright ORBIFLY Dicembre 2007 - Disclaimer

ORBIFLY MET'MAP TEAM :

Programmazione e sviluppo : Alexandra Zaïnal
Concezione : Baudouin d'Aumeries
Aiuto per la programmazione : Marc-Olivier Méhu
Supporto tecnico e logistico : Manuel Goepfert
Aiuto per la traduzione : Arnaldo La Scala

Contatto : metmap@orbifly.com




FONTI E CREDITI :

   NOAA